sensor_id;sensor_type;location;lat;lon;timestamp;P1;durP1;ratioP1;P2;durP2;ratioP2
67762;SDS011;54566;52.022;5.582;2023-09-19T00:01:28;9.77;;;1.70;;
67762;SDS011;54566;52.022;5.582;2023-09-19T00:03:57;12.73;;;1.88;;
67762;SDS011;54566;52.022;5.582;2023-09-19T00:06:23;9.07;;;2.42;;
67762;SDS011;54566;52.022;5.582;2023-09-19T00:08:51;6.03;;;1.98;;
67762;SDS011;54566;52.022;5.582;2023-09-19T00:11:17;14.90;;;2.28;;
67762;SDS011;54566;52.022;5.582;2023-09-19T00:13:43;7.40;;;1.75;;
67762;SDS011;54566;52.022;5.582;2023-09-19T00:16:09;6.38;;;1.92;;
67762;SDS011;54566;52.022;5.582;2023-09-19T00:18:36;7.45;;;2.15;;
67762;SDS011;54566;52.022;5.582;2023-09-19T00:21:03;8.05;;;2.00;;
67762;SDS011;54566;52.022;5.582;2023-09-19T00:23:32;11.13;;;2.08;;
67762;SDS011;54566;52.022;5.582;2023-09-19T00:25:58;11.57;;;2.22;;
67762;SDS011;54566;52.022;5.582;2023-09-19T00:28:25;18.60;;;3.25;;
67762;SDS011;54566;52.022;5.582;2023-09-19T00:30:51;9.32;;;1.90;;
67762;SDS011;54566;52.022;5.582;2023-09-19T00:33:17;12.57;;;2.10;;
67762;SDS011;54566;52.022;5.582;2023-09-19T00:35:53;11.85;;;1.92;;
67762;SDS011;54566;52.022;5.582;2023-09-19T00:38:19;5.72;;;2.05;;
67762;SDS011;54566;52.022;5.582;2023-09-19T00:40:48;14.13;;;2.15;;
67762;SDS011;54566;52.022;5.582;2023-09-19T00:43:16;16.00;;;1.90;;
67762;SDS011;54566;52.022;5.582;2023-09-19T00:45:43;10.00;;;1.95;;
67762;SDS011;54566;52.022;5.582;2023-09-19T00:50:36;12.68;;;2.30;;
67762;SDS011;54566;52.022;5.582;2023-09-19T00:53:07;7.40;;;2.08;;
67762;SDS011;54566;52.022;5.582;2023-09-19T00:55:38;10.05;;;2.17;;
67762;SDS011;54566;52.022;5.582;2023-09-19T00:58:04;12.15;;;2.45;;
67762;SDS011;54566;52.022;5.582;2023-09-19T01:00:31;7.93;;;2.13;;
67762;SDS011;54566;52.022;5.582;2023-09-19T01:02:59;14.98;;;1.90;;
67762;SDS011;54566;52.022;5.582;2023-09-19T01:05:26;10.37;;;1.87;;
67762;SDS011;54566;52.022;5.582;2023-09-19T01:07:53;14.77;;;2.47;;
67762;SDS011;54566;52.022;5.582;2023-09-19T01:10:19;9.27;;;2.30;;
67762;SDS011;54566;52.022;5.582;2023-09-19T01:26:40;16.58;;;2.47;;
67762;SDS011;54566;52.022;5.582;2023-09-19T01:32:14;19.63;;;2.45;;
67762;SDS011;54566;52.022;5.582;2023-09-19T01:34:51;11.52;;;2.35;;
67762;SDS011;54566;52.022;5.582;2023-09-19T01:37:22;21.67;;;2.78;;
67762;SDS011;54566;52.022;5.582;2023-09-19T01:39:53;19.10;;;3.13;;
67762;SDS011;54566;52.022;5.582;2023-09-19T01:42:43;17.52;;;2.88;;
67762;SDS011;54566;52.022;5.582;2023-09-19T01:48:11;18.10;;;2.60;;
67762;SDS011;54566;52.022;5.582;2023-09-19T01:56:32;15.75;;;2.78;;
67762;SDS011;54566;52.022;5.582;2023-09-19T01:59:11;17.13;;;2.97;;
67762;SDS011;54566;52.022;5.582;2023-09-19T02:01:38;21.88;;;3.35;;
67762;SDS011;54566;52.022;5.582;2023-09-19T02:04:06;13.43;;;2.60;;
67762;SDS011;54566;52.022;5.582;2023-09-19T02:06:32;22.10;;;2.53;;
67762;SDS011;54566;52.022;5.582;2023-09-19T02:08:59;20.95;;;3.08;;
67762;SDS011;54566;52.022;5.582;2023-09-19T02:11:25;18.63;;;2.38;;
67762;SDS011;54566;52.022;5.582;2023-09-19T02:13:51;16.67;;;3.13;;
67762;SDS011;54566;52.022;5.582;2023-09-19T02:16:19;21.52;;;2.42;;
67762;SDS011;54566;52.022;5.582;2023-09-19T02:18:47;25.25;;;3.03;;
67762;SDS011;54566;52.022;5.582;2023-09-19T02:21:14;22.67;;;2.50;;
67762;SDS011;54566;52.022;5.582;2023-09-19T02:23:42;13.02;;;2.28;;
67762;SDS011;54566;52.022;5.582;2023-09-19T02:26:08;13.82;;;2.60;;
67762;SDS011;54566;52.022;5.582;2023-09-19T02:28:34;23.67;;;3.25;;
67762;SDS011;54566;52.022;5.582;2023-09-19T02:31:00;18.00;;;2.47;;
67762;SDS011;54566;52.022;5.582;2023-09-19T02:33:26;13.52;;;2.92;;
67762;SDS011;54566;52.022;5.582;2023-09-19T02:35:55;20.90;;;2.97;;
67762;SDS011;54566;52.022;5.582;2023-09-19T02:38:25;16.42;;;2.30;;
67762;SDS011;54566;52.022;5.582;2023-09-19T02:40:54;17.70;;;2.78;;
67762;SDS011;54566;52.022;5.582;2023-09-19T02:43:20;17.20;;;3.03;;
67762;SDS011;54566;52.022;5.582;2023-09-19T02:45:47;15.88;;;2.80;;
67762;SDS011;54566;52.022;5.582;2023-09-19T02:48:15;15.05;;;2.55;;
67762;SDS011;54566;52.022;5.582;2023-09-19T02:50:41;15.90;;;3.13;;
67762;SDS011;54566;52.022;5.582;2023-09-19T02:53:07;17.13;;;2.63;;
67762;SDS011;54566;52.022;5.582;2023-09-19T02:55:32;19.55;;;3.25;;
67762;SDS011;54566;52.022;5.582;2023-09-19T02:57:59;18.75;;;2.95;;
67762;SDS011;54566;52.022;5.582;2023-09-19T03:00:26;13.25;;;2.85;;
67762;SDS011;54566;52.022;5.582;2023-09-19T03:02:53;15.73;;;2.42;;
67762;SDS011;54566;52.022;5.582;2023-09-19T03:05:19;27.92;;;3.53;;
67762;SDS011;54566;52.022;5.582;2023-09-19T03:07:46;12.18;;;2.75;;
67762;SDS011;54566;52.022;5.582;2023-09-19T03:10:16;19.20;;;2.72;;
67762;SDS011;54566;52.022;5.582;2023-09-19T03:12:42;22.33;;;3.20;;
67762;SDS011;54566;52.022;5.582;2023-09-19T03:15:08;19.42;;;3.13;;
67762;SDS011;54566;52.022;5.582;2023-09-19T03:17:34;10.55;;;2.25;;
67762;SDS011;54566;52.022;5.582;2023-09-19T03:20:01;21.67;;;2.55;;
67762;SDS011;54566;52.022;5.582;2023-09-19T03:22:27;11.20;;;2.28;;
67762;SDS011;54566;52.022;5.582;2023-09-19T03:24:53;15.32;;;2.97;;
67762;SDS011;54566;52.022;5.582;2023-09-19T03:27:19;20.88;;;2.50;;
67762;SDS011;54566;52.022;5.582;2023-09-19T03:29:45;14.15;;;2.70;;
67762;SDS011;54566;52.022;5.582;2023-09-19T03:32:11;23.35;;;3.00;;
67762;SDS011;54566;52.022;5.582;2023-09-19T03:34:37;21.88;;;2.78;;
67762;SDS011;54566;52.022;5.582;2023-09-19T03:37:08;17.50;;;3.33;;
67762;SDS011;54566;52.022;5.582;2023-09-19T03:39:34;20.17;;;3.10;;
67762;SDS011;54566;52.022;5.582;2023-09-19T03:42:00;21.10;;;2.70;;
67762;SDS011;54566;52.022;5.582;2023-09-19T03:44:26;16.38;;;2.80;;
67762;SDS011;54566;52.022;5.582;2023-09-19T03:46:52;14.25;;;2.95;;
67762;SDS011;54566;52.022;5.582;2023-09-19T03:49:17;17.48;;;2.80;;
67762;SDS011;54566;52.022;5.582;2023-09-19T03:51:44;16.52;;;2.35;;
67762;SDS011;54566;52.022;5.582;2023-09-19T03:54:10;19.15;;;2.92;;
67762;SDS011;54566;52.022;5.582;2023-09-19T03:56:35;15.68;;;2.75;;
67762;SDS011;54566;52.022;5.582;2023-09-19T03:59:01;15.35;;;2.83;;
67762;SDS011;54566;52.022;5.582;2023-09-19T04:01:27;11.80;;;3.05;;
67762;SDS011;54566;52.022;5.582;2023-09-19T04:03:55;21.50;;;2.75;;
67762;SDS011;54566;52.022;5.582;2023-09-19T04:06:21;15.05;;;2.97;;
67762;SDS011;54566;52.022;5.582;2023-09-19T04:08:47;19.65;;;2.70;;
67762;SDS011;54566;52.022;5.582;2023-09-19T04:11:13;15.00;;;3.03;;
67762;SDS011;54566;52.022;5.582;2023-09-19T04:13:39;21.33;;;2.65;;
67762;SDS011;54566;52.022;5.582;2023-09-19T04:16:05;14.70;;;2.30;;
67762;SDS011;54566;52.022;5.582;2023-09-19T04:18:34;24.10;;;2.70;;
67762;SDS011;54566;52.022;5.582;2023-09-19T04:21:03;11.98;;;2.70;;
67762;SDS011;54566;52.022;5.582;2023-09-19T04:23:30;12.80;;;3.13;;
67762;SDS011;54566;52.022;5.582;2023-09-19T04:25:59;14.90;;;2.70;;
67762;SDS011;54566;52.022;5.582;2023-09-19T04:28:25;17.60;;;2.60;;
67762;SDS011;54566;52.022;5.582;2023-09-19T04:30:52;18.02;;;2.78;;
67762;SDS011;54566;52.022;5.582;2023-09-19T04:33:18;12.82;;;2.25;;
67762;SDS011;54566;52.022;5.582;2023-09-19T04:35:44;17.70;;;2.80;;
67762;SDS011;54566;52.022;5.582;2023-09-19T04:38:09;11.40;;;2.33;;
67762;SDS011;54566;52.022;5.582;2023-09-19T04:40:36;15.15;;;2.67;;
67762;SDS011;54566;52.022;5.582;2023-09-19T04:43:04;13.57;;;2.50;;
67762;SDS011;54566;52.022;5.582;2023-09-19T04:45:31;15.63;;;2.35;;
67762;SDS011;54566;52.022;5.582;2023-09-19T04:47:56;20.83;;;3.20;;
67762;SDS011;54566;52.022;5.582;2023-09-19T04:50:22;18.42;;;3.70;;
67762;SDS011;54566;52.022;5.582;2023-09-19T04:52:49;13.00;;;2.03;;
67762;SDS011;54566;52.022;5.582;2023-09-19T04:55:16;15.27;;;2.80;;
67762;SDS011;54566;52.022;5.582;2023-09-19T04:57:49;20.50;;;2.58;;
67762;SDS011;54566;52.022;5.582;2023-09-19T05:00:16;14.82;;;2.65;;
67762;SDS011;54566;52.022;5.582;2023-09-19T05:02:49;17.50;;;2.70;;
67762;SDS011;54566;52.022;5.582;2023-09-19T05:05:16;12.38;;;2.30;;
67762;SDS011;54566;52.022;5.582;2023-09-19T05:07:44;14.85;;;2.85;;
67762;SDS011;54566;52.022;5.582;2023-09-19T05:10:10;18.05;;;2.58;;
67762;SDS011;54566;52.022;5.582;2023-09-19T05:12:37;11.77;;;2.47;;
67762;SDS011;54566;52.022;5.582;2023-09-19T05:15:06;18.83;;;3.15;;
67762;SDS011;54566;52.022;5.582;2023-09-19T05:17:33;9.88;;;2.63;;
67762;SDS011;54566;52.022;5.582;2023-09-19T05:20:00;10.98;;;2.45;;
67762;SDS011;54566;52.022;5.582;2023-09-19T05:22:46;12.95;;;2.42;;
67762;SDS011;54566;52.022;5.582;2023-09-19T05:25:12;13.43;;;2.92;;
67762;SDS011;54566;52.022;5.582;2023-09-19T05:27:43;9.85;;;2.67;;
67762;SDS011;54566;52.022;5.582;2023-09-19T05:30:09;20.48;;;2.90;;
67762;SDS011;54566;52.022;5.582;2023-09-19T05:32:35;16.13;;;2.70;;
67762;SDS011;54566;52.022;5.582;2023-09-19T05:35:01;14.73;;;2.55;;
67762;SDS011;54566;52.022;5.582;2023-09-19T05:37:28;15.57;;;2.63;;
67762;SDS011;54566;52.022;5.582;2023-09-19T05:39:54;13.85;;;2.50;;
67762;SDS011;54566;52.022;5.582;2023-09-19T05:42:21;14.10;;;2.33;;
67762;SDS011;54566;52.022;5.582;2023-09-19T05:44:46;18.70;;;3.00;;
67762;SDS011;54566;52.022;5.582;2023-09-19T05:47:14;11.38;;;2.30;;
67762;SDS011;54566;52.022;5.582;2023-09-19T05:49:40;18.10;;;2.40;;
67762;SDS011;54566;52.022;5.582;2023-09-19T05:52:12;17.88;;;2.90;;
67762;SDS011;54566;52.022;5.582;2023-09-19T05:54:37;13.60;;;2.42;;
67762;SDS011;54566;52.022;5.582;2023-09-19T05:57:07;16.63;;;2.40;;
67762;SDS011;54566;52.022;5.582;2023-09-19T05:59:33;15.15;;;2.40;;
67762;SDS011;54566;52.022;5.582;2023-09-19T06:01:59;13.05;;;2.38;;
67762;SDS011;54566;52.022;5.582;2023-09-19T06:04:28;14.68;;;2.55;;
67762;SDS011;54566;52.022;5.582;2023-09-19T06:06:57;18.05;;;2.90;;
67762;SDS011;54566;52.022;5.582;2023-09-19T06:09:24;15.48;;;2.53;;
67762;SDS011;54566;52.022;5.582;2023-09-19T06:11:53;16.00;;;2.63;;
67762;SDS011;54566;52.022;5.582;2023-09-19T06:14:25;16.45;;;2.95;;
67762;SDS011;54566;52.022;5.582;2023-09-19T06:17:00;15.07;;;2.17;;
67762;SDS011;54566;52.022;5.582;2023-09-19T06:19:26;15.00;;;2.88;;
67762;SDS011;54566;52.022;5.582;2023-09-19T06:21:52;24.25;;;3.90;;
67762;SDS011;54566;52.022;5.582;2023-09-19T06:24:21;15.10;;;2.90;;
67762;SDS011;54566;52.022;5.582;2023-09-19T06:26:46;16.80;;;3.10;;
67762;SDS011;54566;52.022;5.582;2023-09-19T06:29:12;21.55;;;2.65;;
67762;SDS011;54566;52.022;5.582;2023-09-19T06:31:39;17.48;;;2.85;;
67762;SDS011;54566;52.022;5.582;2023-09-19T06:34:05;14.85;;;2.80;;
67762;SDS011;54566;52.022;5.582;2023-09-19T06:36:32;14.70;;;2.38;;
67762;SDS011;54566;52.022;5.582;2023-09-19T06:38:57;15.57;;;2.53;;
67762;SDS011;54566;52.022;5.582;2023-09-19T06:41:24;15.07;;;2.30;;
67762;SDS011;54566;52.022;5.582;2023-09-19T06:43:50;12.75;;;3.00;;
67762;SDS011;54566;52.022;5.582;2023-09-19T06:48:44;20.10;;;3.10;;
67762;SDS011;54566;52.022;5.582;2023-09-19T06:51:09;18.67;;;2.72;;
67762;SDS011;54566;52.022;5.582;2023-09-19T06:53:35;23.70;;;4.38;;
67762;SDS011;54566;52.022;5.582;2023-09-19T06:56:01;22.85;;;2.92;;
67762;SDS011;54566;52.022;5.582;2023-09-19T06:58:28;16.42;;;2.50;;
67762;SDS011;54566;52.022;5.582;2023-09-19T07:00:56;17.48;;;2.90;;
67762;SDS011;54566;52.022;5.582;2023-09-19T07:03:22;16.65;;;2.55;;
67762;SDS011;54566;52.022;5.582;2023-09-19T07:05:51;17.20;;;2.50;;
67762;SDS011;54566;52.022;5.582;2023-09-19T07:08:17;17.70;;;2.75;;
67762;SDS011;54566;52.022;5.582;2023-09-19T07:10:44;17.45;;;3.42;;
67762;SDS011;54566;52.022;5.582;2023-09-19T07:13:13;16.63;;;2.88;;
67762;SDS011;54566;52.022;5.582;2023-09-19T07:18:15;19.80;;;2.58;;
67762;SDS011;54566;52.022;5.582;2023-09-19T07:20:41;16.45;;;2.97;;
67762;SDS011;54566;52.022;5.582;2023-09-19T07:23:20;14.70;;;2.92;;
67762;SDS011;54566;52.022;5.582;2023-09-19T07:25:48;15.02;;;2.50;;
67762;SDS011;54566;52.022;5.582;2023-09-19T07:28:14;16.88;;;2.65;;
67762;SDS011;54566;52.022;5.582;2023-09-19T07:30:40;14.00;;;2.13;;
67762;SDS011;54566;52.022;5.582;2023-09-19T07:33:06;14.18;;;2.63;;
67762;SDS011;54566;52.022;5.582;2023-09-19T07:35:32;19.73;;;2.92;;
67762;SDS011;54566;52.022;5.582;2023-09-19T07:37:58;18.63;;;2.90;;
67762;SDS011;54566;52.022;5.582;2023-09-19T07:42:57;20.95;;;3.15;;
67762;SDS011;54566;52.022;5.582;2023-09-19T07:45:27;18.52;;;3.05;;
67762;SDS011;54566;52.022;5.582;2023-09-19T07:50:30;24.52;;;3.00;;
67762;SDS011;54566;52.022;5.582;2023-09-19T07:53:04;17.25;;;2.85;;
67762;SDS011;54566;52.022;5.582;2023-09-19T07:55:30;17.75;;;2.90;;
67762;SDS011;54566;52.022;5.582;2023-09-19T08:22:55;20.15;;;3.30;;
67762;SDS011;54566;52.022;5.582;2023-09-19T08:25:21;21.20;;;2.90;;
67762;SDS011;54566;52.022;5.582;2023-09-19T08:27:51;24.33;;;3.45;;
67762;SDS011;54566;52.022;5.582;2023-09-19T08:30:18;16.13;;;2.60;;
67762;SDS011;54566;52.022;5.582;2023-09-19T08:32:50;17.05;;;2.85;;
67762;SDS011;54566;52.022;5.582;2023-09-19T08:35:16;17.73;;;3.38;;
67762;SDS011;54566;52.022;5.582;2023-09-19T08:38:10;20.30;;;4.07;;
67762;SDS011;54566;52.022;5.582;2023-09-19T08:41:08;20.10;;;3.17;;
67762;SDS011;54566;52.022;5.582;2023-09-19T08:46:16;23.48;;;3.40;;
67762;SDS011;54566;52.022;5.582;2023-09-19T10:08:19;17.55;;;2.80;;
67762;SDS011;54566;52.022;5.582;2023-09-19T10:10:46;17.52;;;3.40;;
67762;SDS011;54566;52.022;5.582;2023-09-19T10:13:35;19.42;;;3.30;;
67762;SDS011;54566;52.022;5.582;2023-09-19T10:16:06;10.88;;;2.55;;
67762;SDS011;54566;52.022;5.582;2023-09-19T10:18:39;21.02;;;3.25;;
67762;SDS011;54566;52.022;5.582;2023-09-19T10:21:08;13.25;;;2.78;;
67762;SDS011;54566;52.022;5.582;2023-09-19T10:23:35;13.53;;;2.60;;
67762;SDS011;54566;52.022;5.582;2023-09-19T10:26:03;13.90;;;2.40;;
67762;SDS011;54566;52.022;5.582;2023-09-19T10:28:30;19.88;;;3.05;;
67762;SDS011;54566;52.022;5.582;2023-09-19T10:30:57;14.13;;;3.10;;
67762;SDS011;54566;52.022;5.582;2023-09-19T10:33:24;12.82;;;2.42;;
67762;SDS011;54566;52.022;5.582;2023-09-19T10:35:55;22.48;;;3.28;;
67762;SDS011;54566;52.022;5.582;2023-09-19T10:38:26;12.75;;;2.78;;
67762;SDS011;54566;52.022;5.582;2023-09-19T10:40:54;19.02;;;2.67;;
67762;SDS011;54566;52.022;5.582;2023-09-19T10:43:25;22.08;;;2.92;;
67762;SDS011;54566;52.022;5.582;2023-09-19T10:45:55;17.88;;;3.22;;
67762;SDS011;54566;52.022;5.582;2023-09-19T10:48:26;14.93;;;2.38;;
67762;SDS011;54566;52.022;5.582;2023-09-19T10:57:04;14.25;;;2.60;;
67762;SDS011;54566;52.022;5.582;2023-09-19T10:59:33;18.23;;;2.53;;
67762;SDS011;54566;52.022;5.582;2023-09-19T11:02:15;11.35;;;2.42;;
67762;SDS011;54566;52.022;5.582;2023-09-19T11:04:43;15.75;;;2.70;;
67762;SDS011;54566;52.022;5.582;2023-09-19T11:07:13;14.23;;;3.13;;
67762;SDS011;54566;52.022;5.582;2023-09-19T11:09:51;12.45;;;2.35;;
67762;SDS011;54566;52.022;5.582;2023-09-19T11:15:06;12.00;;;2.55;;
67762;SDS011;54566;52.022;5.582;2023-09-19T11:17:39;10.05;;;2.10;;
67762;SDS011;54566;52.022;5.582;2023-09-19T11:35:58;12.88;;;2.10;;
67762;SDS011;54566;52.022;5.582;2023-09-19T11:41:52;12.55;;;2.15;;
67762;SDS011;54566;52.022;5.582;2023-09-19T11:44:32;11.52;;;2.05;;
67762;SDS011;54566;52.022;5.582;2023-09-19T11:46:59;8.10;;;1.90;;
67762;SDS011;54566;52.022;5.582;2023-09-19T11:49:30;9.90;;;1.70;;
67762;SDS011;54566;52.022;5.582;2023-09-19T11:52:02;14.25;;;2.25;;
67762;SDS011;54566;52.022;5.582;2023-09-19T11:55:32;16.27;;;1.90;;
67762;SDS011;54566;52.022;5.582;2023-09-19T11:58:11;14.27;;;2.33;;
67762;SDS011;54566;52.022;5.582;2023-09-19T12:17:36;12.13;;;1.92;;
67762;SDS011;54566;52.022;5.582;2023-09-19T12:20:04;8.93;;;2.03;;
67762;SDS011;54566;52.022;5.582;2023-09-19T12:22:43;9.45;;;1.83;;
67762;SDS011;54566;52.022;5.582;2023-09-19T12:25:11;5.47;;;1.40;;
67762;SDS011;54566;52.022;5.582;2023-09-19T12:27:44;16.17;;;1.60;;
67762;SDS011;54566;52.022;5.582;2023-09-19T12:30:18;5.27;;;1.53;;
67762;SDS011;54566;52.022;5.582;2023-09-19T12:32:45;9.70;;;2.17;;
67762;SDS011;54566;52.022;5.582;2023-09-19T12:35:32;8.43;;;1.92;;
67762;SDS011;54566;52.022;5.582;2023-09-19T12:38:03;10.70;;;1.95;;
67762;SDS011;54566;52.022;5.582;2023-09-19T12:40:30;11.95;;;1.90;;
67762;SDS011;54566;52.022;5.582;2023-09-19T12:42:58;12.00;;;1.60;;
67762;SDS011;54566;52.022;5.582;2023-09-19T12:45:26;8.73;;;1.80;;
67762;SDS011;54566;52.022;5.582;2023-09-19T12:51:01;6.63;;;1.48;;
67762;SDS011;54566;52.022;5.582;2023-09-19T12:53:38;9.90;;;1.40;;
67762;SDS011;54566;52.022;5.582;2023-09-19T12:56:09;8.55;;;1.25;;
67762;SDS011;54566;52.022;5.582;2023-09-19T12:58:53;7.18;;;1.55;;
67762;SDS011;54566;52.022;5.582;2023-09-19T13:01:19;8.77;;;1.60;;
67762;SDS011;54566;52.022;5.582;2023-09-19T13:06:51;9.00;;;1.40;;
67762;SDS011;54566;52.022;5.582;2023-09-19T13:09:21;10.48;;;1.90;;
67762;SDS011;54566;52.022;5.582;2023-09-19T13:11:50;10.35;;;1.42;;
67762;SDS011;54566;52.022;5.582;2023-09-19T13:16:56;7.18;;;1.52;;
67762;SDS011;54566;52.022;5.582;2023-09-19T13:25:07;7.68;;;1.08;;
67762;SDS011;54566;52.022;5.582;2023-09-19T13:27:40;7.22;;;1.42;;
67762;SDS011;54566;52.022;5.582;2023-09-19T13:30:06;7.15;;;1.48;;
67762;SDS011;54566;52.022;5.582;2023-09-19T13:32:32;7.03;;;1.52;;
67762;SDS011;54566;52.022;5.582;2023-09-19T13:34:59;13.77;;;3.42;;
67762;SDS011;54566;52.022;5.582;2023-09-19T13:37:27;7.90;;;1.60;;
67762;SDS011;54566;52.022;5.582;2023-09-19T13:39:54;7.40;;;2.05;;
67762;SDS011;54566;52.022;5.582;2023-09-19T13:42:19;13.48;;;1.83;;
67762;SDS011;54566;52.022;5.582;2023-09-19T13:44:47;7.43;;;1.33;;
67762;SDS011;54566;52.022;5.582;2023-09-19T13:47:13;10.45;;;1.85;;
67762;SDS011;54566;52.022;5.582;2023-09-19T13:49:40;12.00;;;2.00;;
67762;SDS011;54566;52.022;5.582;2023-09-19T13:52:05;9.18;;;1.92;;
67762;SDS011;54566;52.022;5.582;2023-09-19T13:54:32;11.75;;;1.30;;
67762;SDS011;54566;52.022;5.582;2023-09-19T13:56:58;10.40;;;1.30;;
67762;SDS011;54566;52.022;5.582;2023-09-19T13:59:24;4.88;;;1.20;;
67762;SDS011;54566;52.022;5.582;2023-09-19T14:01:49;8.43;;;1.20;;
67762;SDS011;54566;52.022;5.582;2023-09-19T14:04:15;9.57;;;1.20;;
67762;SDS011;54566;52.022;5.582;2023-09-19T14:06:42;14.52;;;1.30;;
67762;SDS011;54566;52.022;5.582;2023-09-19T14:09:08;5.63;;;1.27;;
67762;SDS011;54566;52.022;5.582;2023-09-19T14:11:35;3.77;;;1.20;;
67762;SDS011;54566;52.022;5.582;2023-09-19T14:14:01;5.60;;;1.00;;
67762;SDS011;54566;52.022;5.582;2023-09-19T14:16:27;14.38;;;1.45;;
67762;SDS011;54566;52.022;5.582;2023-09-19T14:18:56;5.47;;;1.48;;
67762;SDS011;54566;52.022;5.582;2023-09-19T14:21:22;8.02;;;1.50;;
67762;SDS011;54566;52.022;5.582;2023-09-19T14:23:48;10.05;;;1.35;;
67762;SDS011;54566;52.022;5.582;2023-09-19T14:26:14;5.85;;;1.30;;
67762;SDS011;54566;52.022;5.582;2023-09-19T14:28:41;8.90;;;1.38;;
67762;SDS011;54566;52.022;5.582;2023-09-19T14:31:08;7.75;;;1.50;;
67762;SDS011;54566;52.022;5.582;2023-09-19T14:33:34;5.05;;;1.45;;
67762;SDS011;54566;52.022;5.582;2023-09-19T14:36:02;5.53;;;1.45;;
67762;SDS011;54566;52.022;5.582;2023-09-19T14:38:33;6.13;;;1.50;;
67762;SDS011;54566;52.022;5.582;2023-09-19T14:41:02;8.98;;;1.80;;
67762;SDS011;54566;52.022;5.582;2023-09-19T14:43:29;9.88;;;1.25;;
67762;SDS011;54566;52.022;5.582;2023-09-19T14:46:07;6.43;;;1.40;;
67762;SDS011;54566;52.022;5.582;2023-09-19T14:48:34;5.35;;;1.20;;
67762;SDS011;54566;52.022;5.582;2023-09-19T14:51:03;5.88;;;1.58;;
67762;SDS011;54566;52.022;5.582;2023-09-19T14:53:30;11.20;;;1.58;;
67762;SDS011;54566;52.022;5.582;2023-09-19T14:55:56;3.80;;;1.13;;
67762;SDS011;54566;52.022;5.582;2023-09-19T14:58:25;6.82;;;1.50;;
67762;SDS011;54566;52.022;5.582;2023-09-19T15:01:01;6.80;;;1.50;;
67762;SDS011;54566;52.022;5.582;2023-09-19T15:03:31;5.20;;;1.08;;
67762;SDS011;54566;52.022;5.582;2023-09-19T15:06:04;11.27;;;1.63;;
67762;SDS011;54566;52.022;5.582;2023-09-19T15:08:32;10.73;;;1.40;;
67762;SDS011;54566;52.022;5.582;2023-09-19T15:13:29;6.68;;;2.25;;
67762;SDS011;54566;52.022;5.582;2023-09-19T15:16:05;10.63;;;1.63;;
67762;SDS011;54566;52.022;5.582;2023-09-19T15:18:38;5.68;;;1.75;;
67762;SDS011;54566;52.022;5.582;2023-09-19T15:21:06;6.88;;;1.85;;
67762;SDS011;54566;52.022;5.582;2023-09-19T15:23:33;8.80;;;1.45;;
67762;SDS011;54566;52.022;5.582;2023-09-19T15:26:00;7.38;;;1.63;;
67762;SDS011;54566;52.022;5.582;2023-09-19T15:28:38;14.20;;;2.22;;
67762;SDS011;54566;52.022;5.582;2023-09-19T15:31:30;8.43;;;2.03;;
67762;SDS011;54566;52.022;5.582;2023-09-19T15:33:56;5.35;;;1.30;;
67762;SDS011;54566;52.022;5.582;2023-09-19T15:36:24;4.80;;;1.50;;
67762;SDS011;54566;52.022;5.582;2023-09-19T15:38:59;5.90;;;1.13;;
67762;SDS011;54566;52.022;5.582;2023-09-19T15:42:02;8.23;;;2.10;;
67762;SDS011;54566;52.022;5.582;2023-09-19T15:44:28;10.23;;;2.00;;
67762;SDS011;54566;52.022;5.582;2023-09-19T15:46:53;7.18;;;1.55;;
67762;SDS011;54566;52.022;5.582;2023-09-19T15:49:19;8.48;;;1.90;;
67762;SDS011;54566;52.022;5.582;2023-09-19T15:51:46;8.18;;;1.70;;
67762;SDS011;54566;52.022;5.582;2023-09-19T15:54:14;5.45;;;2.38;;
67762;SDS011;54566;52.022;5.582;2023-09-19T15:56:45;14.02;;;2.00;;
67762;SDS011;54566;52.022;5.582;2023-09-19T15:59:12;10.32;;;2.25;;
67762;SDS011;54566;52.022;5.582;2023-09-19T16:01:38;7.47;;;2.10;;
67762;SDS011;54566;52.022;5.582;2023-09-19T16:04:08;8.45;;;1.90;;
67762;SDS011;54566;52.022;5.582;2023-09-19T16:06:34;7.40;;;2.10;;
67762;SDS011;54566;52.022;5.582;2023-09-19T16:09:01;9.05;;;1.95;;
67762;SDS011;54566;52.022;5.582;2023-09-19T16:11:31;5.90;;;1.80;;
67762;SDS011;54566;52.022;5.582;2023-09-19T16:13:59;11.25;;;2.85;;
67762;SDS011;54566;52.022;5.582;2023-09-19T16:16:26;7.85;;;1.80;;
67762;SDS011;54566;52.022;5.582;2023-09-19T16:18:58;8.75;;;1.95;;
67762;SDS011;54566;52.022;5.582;2023-09-19T16:21:27;14.25;;;3.30;;
67762;SDS011;54566;52.022;5.582;2023-09-19T16:23:54;4.47;;;1.55;;
67762;SDS011;54566;52.022;5.582;2023-09-19T16:26:37;5.50;;;1.95;;
67762;SDS011;54566;52.022;5.582;2023-09-19T16:29:05;5.20;;;1.52;;
67762;SDS011;54566;52.022;5.582;2023-09-19T16:31:36;13.32;;;1.90;;
67762;SDS011;54566;52.022;5.582;2023-09-19T16:34:06;7.00;;;1.40;;
67762;SDS011;54566;52.022;5.582;2023-09-19T16:36:34;8.07;;;1.83;;
67762;SDS011;54566;52.022;5.582;2023-09-19T16:39:21;5.82;;;1.30;;
67762;SDS011;54566;52.022;5.582;2023-09-19T16:41:47;6.03;;;1.92;;
67762;SDS011;54566;52.022;5.582;2023-09-19T16:44:13;8.52;;;1.95;;
67762;SDS011;54566;52.022;5.582;2023-09-19T16:46:40;12.32;;;2.03;;
67762;SDS011;54566;52.022;5.582;2023-09-19T16:49:06;6.03;;;1.52;;
67762;SDS011;54566;52.022;5.582;2023-09-19T16:51:32;9.30;;;2.20;;
67762;SDS011;54566;52.022;5.582;2023-09-19T16:53:58;7.82;;;1.90;;
67762;SDS011;54566;52.022;5.582;2023-09-19T16:56:23;7.05;;;1.42;;
67762;SDS011;54566;52.022;5.582;2023-09-19T16:58:49;7.93;;;1.90;;
67762;SDS011;54566;52.022;5.582;2023-09-19T17:01:16;10.70;;;1.67;;
67762;SDS011;54566;52.022;5.582;2023-09-19T17:03:44;8.02;;;1.77;;
67762;SDS011;54566;52.022;5.582;2023-09-19T17:06:12;8.02;;;1.90;;
67762;SDS011;54566;52.022;5.582;2023-09-19T17:08:40;4.25;;;1.63;;
67762;SDS011;54566;52.022;5.582;2023-09-19T17:11:10;7.63;;;1.67;;
67762;SDS011;54566;52.022;5.582;2023-09-19T17:13:38;8.30;;;2.10;;
67762;SDS011;54566;52.022;5.582;2023-09-19T17:16:11;9.40;;;1.77;;
67762;SDS011;54566;52.022;5.582;2023-09-19T17:18:39;7.72;;;1.98;;
67762;SDS011;54566;52.022;5.582;2023-09-19T17:21:12;12.70;;;1.90;;
67762;SDS011;54566;52.022;5.582;2023-09-19T17:23:39;8.63;;;2.15;;
67762;SDS011;54566;52.022;5.582;2023-09-19T17:26:09;10.65;;;2.20;;
67762;SDS011;54566;52.022;5.582;2023-09-19T17:28:36;6.43;;;2.00;;
67762;SDS011;54566;52.022;5.582;2023-09-19T17:31:07;12.80;;;2.47;;
67762;SDS011;54566;52.022;5.582;2023-09-19T17:33:39;6.35;;;1.75;;
67762;SDS011;54566;52.022;5.582;2023-09-19T17:36:09;7.05;;;2.40;;
67762;SDS011;54566;52.022;5.582;2023-09-19T17:38:49;4.47;;;1.60;;
67762;SDS011;54566;52.022;5.582;2023-09-19T17:41:16;7.85;;;1.80;;
67762;SDS011;54566;52.022;5.582;2023-09-19T17:43:45;8.60;;;2.25;;
67762;SDS011;54566;52.022;5.582;2023-09-19T17:51:22;7.18;;;2.33;;
67762;SDS011;54566;52.022;5.582;2023-09-19T17:53:48;13.57;;;2.00;;
67762;SDS011;54566;52.022;5.582;2023-09-19T17:56:15;7.18;;;2.15;;
67762;SDS011;54566;52.022;5.582;2023-09-19T17:58:42;8.38;;;2.17;;
67762;SDS011;54566;52.022;5.582;2023-09-19T18:03:42;5.45;;;1.40;;
67762;SDS011;54566;52.022;5.582;2023-09-19T18:06:08;6.47;;;1.85;;
67762;SDS011;54566;52.022;5.582;2023-09-19T18:08:35;9.80;;;1.77;;
67762;SDS011;54566;52.022;5.582;2023-09-19T18:11:01;9.98;;;2.13;;
67762;SDS011;54566;52.022;5.582;2023-09-19T18:13:27;9.95;;;1.70;;
67762;SDS011;54566;52.022;5.582;2023-09-19T18:15:54;10.75;;;1.80;;
67762;SDS011;54566;52.022;5.582;2023-09-19T18:18:24;7.75;;;1.90;;
67762;SDS011;54566;52.022;5.582;2023-09-19T18:20:50;7.93;;;1.88;;
67762;SDS011;54566;52.022;5.582;2023-09-19T18:23:16;10.30;;;1.77;;